Terminal Aerodrome Forecast
Issued by NWS

Home | Current Version | Previous Version | Graphics & Text | Print | Product List | Glossary On
Versions: 1 2 3 4 5 6 7 8 9 10 11 12 13 14
000
FTUS42 KMHX 292300
TAFPGV
TAF
KPGV 292332Z 3000/3024 19008KT P6SM BKN080
     FM300600 25008KT P6SM OVC050
     FM301400 33018G28KT P6SM SCT050
     FM302200 32008KT P6SM SKC
      AMD LTD TO CLD VIS AND WIND=

USA.gov is the U.S. government's official web portal to all federal, state and local government web resources and services.